Time;durP1;ratioP1;P1;durP2;ratioP2;P2;SDS_P1;SDS_P2;PMS_P1;PMS_P2;Temp;Humidity;BMP_temperature;BMP_pressure;BME280_temperature;BME280_humidity;BME280_pressure;Samples;Min_cycle;Max_cycle;Signal;HPM_P1;HPM_P2
2022/05/21 00:00:20;;;;;;;;;;;;;;;11.07;68.27;95693.22;5134087;27;1201;-48
2022/05/21 00:02:49;;;;;;;;;;;;;;;11.10;68.09;95698.28;5133908;27;965;-49
2022/05/21 00:05:16;;;;;;;;;;;;;;;11.17;68.23;95700.34;5126561;27;1207;-49
2022/05/21 00:07:43;;;;;;;;;;;;;;;11.29;67.71;95688.44;5114868;28;1067;-49
2022/05/21 00:10:10;;;;;;;;;;;;;;;11.33;67.60;95693.31;5117683;28;1034;-48
2022/05/21 00:12:36;;;;;;;;;;;;;;;11.27;67.87;95687.75;5117018;28;1047;-48
2022/05/21 00:15:02;;;;;;;;;;;;;;;11.05;68.53;95684.50;5117066;28;1981;-48
2022/05/21 00:17:28;;;;;;;;;;;;;;;10.93;68.86;95691.06;5117411;28;1022;-49
2022/05/21 00:19:54;;;;;;;;;;;;;;;10.96;68.71;95689.91;5117186;28;999;-49
2022/05/21 00:22:20;;;;;;;;;;;;;;;10.99;68.04;95690.47;5117422;28;1098;-49
2022/05/21 00:24:46;;;;;;;;;;;;;;;10.71;68.85;95684.28;5116632;28;1091;-49
2022/05/21 00:27:12;;;;;;;;;;;;;;;10.45;69.79;95686.78;5117209;28;964;-48
2022/05/21 00:29:38;;;;;;;;;;;;;;;10.41;70.06;95686.25;5116795;28;1040;-49
2022/05/21 00:32:05;;;;;;;;;;;;;;;10.57;69.42;95693.66;5116978;28;1023;-49
2022/05/21 00:34:31;;;;;;;;;;;;;;;10.54;69.35;95691.25;5116596;28;1906;-49
2022/05/21 00:36:57;;;;;;;;;;;;;;;10.49;69.75;95689.03;5116856;28;1040;-48
2022/05/21 00:39:23;;;;;;;;;;;;;;;10.65;69.10;95685.72;5116834;28;1031;-48
2022/05/21 00:41:50;;;;;;;;;;;;;;;10.58;68.79;95683.78;5116995;28;965;-48
2022/05/21 00:44:16;;;;;;;;;;;;;;;10.32;69.54;95681.78;5116523;28;1036;-49
2022/05/21 00:46:43;;;;;;;;;;;;;;;9.95;70.93;95671.88;5116583;28;1056;-49
2022/05/21 00:49:15;;;;;;;;;;;;;;;9.93;71.40;95682.72;5116850;28;967;-49
2022/05/21 00:51:44;;;;;;;;;;;;;;;9.84;71.54;95682.72;5116732;28;1019;-49
2022/05/21 00:54:11;;;;;;;;;;;;;;;10.08;70.82;95671.56;5116105;28;1910;-49
2022/05/21 00:56:51;;;;;;;;;;;;;;;10.29;70.02;95668.69;5116487;28;996;-48
2022/05/21 01:02:05;;;;;;;;;;;;;;;10.02;70.65;95670.31;5116686;28;979;-49
2022/05/21 01:04:33;;;;;;;;;;;;;;;10.01;70.47;95681.16;5117504;27;1211;-49
2022/05/21 01:07:00;;;;;;;;;;;;;;;9.89;70.86;95675.97;5137217;27;995;-49
2022/05/21 01:09:26;;;;;;;;;;;;;;;9.64;71.52;95674.75;5136749;27;969;-48
2022/05/21 01:11:53;;;;;;;;;;;;;;;9.65;71.45;95670.25;5137008;27;988;-49
2022/05/21 01:14:22;;;;;;;;;;;;;;;9.84;71.02;95664.88;5136356;27;1913;-49
2022/05/21 01:16:48;;;;;;;;;;;;;;;9.83;70.91;95665.88;5136618;27;1078;-48
2022/05/21 01:19:14;;;;;;;;;;;;;;;9.64;71.74;95663.25;5135970;27;1048;-49
2022/05/21 01:21:40;;;;;;;;;;;;;;;9.55;71.98;95667.59;5136844;27;977;-48
2022/05/21 01:24:07;;;;;;;;;;;;;;;9.69;71.97;95669.81;5136288;27;995;-49
2022/05/21 01:26:34;;;;;;;;;;;;;;;9.90;71.00;95668.78;5136614;27;1064;-48
2022/05/21 01:29:02;;;;;;;;;;;;;;;10.00;70.80;95666.97;5136605;27;957;-48
2022/05/21 01:31:28;;;;;;;;;;;;;;;9.98;70.66;95674.28;5136562;27;1055;-49
2022/05/21 01:33:54;;;;;;;;;;;;;;;10.03;70.53;95671.16;5136544;27;1913;-49
2022/05/21 01:36:20;;;;;;;;;;;;;;;9.79;71.14;95667.16;5136238;27;1012;-49
2022/05/21 01:38:47;;;;;;;;;;;;;;;9.76;70.66;95660.25;5136145;27;1036;-48
2022/05/21 01:41:13;;;;;;;;;;;;;;;9.75;71.03;95663.06;5135924;27;1852;-48
2022/05/21 01:46:24;;;;;;;;;;;;;;;9.40;72.39;95667.19;5136238;27;1007;-49
2022/05/21 01:48:50;;;;;;;;;;;;;;;9.56;71.80;95658.59;5136460;27;969;-49
2022/05/21 01:51:16;;;;;;;;;;;;;;;9.77;71.29;95653.94;5136032;27;1040;-49
2022/05/21 01:53:43;;;;;;;;;;;;;;;9.82;70.62;95656.16;5135774;27;1909;-49
2022/05/21 01:56:10;;;;;;;;;;;;;;;9.82;71.00;95652.66;5136006;27;1055;-49
2022/05/21 01:58:36;;;;;;;;;;;;;;;9.77;70.59;95650.44;5136031;27;1054;-48
2022/05/21 02:01:03;;;;;;;;;;;;;;;9.49;70.98;95653.00;5135887;27;1060;-49
2022/05/21 02:03:29;;;;;;;;;;;;;;;9.32;71.28;95643.03;5136033;27;1043;-49
2022/05/21 02:05:55;;;;;;;;;;;;;;;8.97;72.47;95647.94;5122628;27;1188;-48
2022/05/21 02:08:21;;;;;;;;;;;;;;;9.09;72.53;95643.31;5115244;28;1047;-48
2022/05/21 02:10:47;;;;;;;;;;;;;;;9.09;72.23;95647.81;5115127;28;978;-48
2022/05/21 02:13:15;;;;;;;;;;;;;;;9.15;72.12;95640.06;5114785;28;1229;-48
2022/05/21 02:15:41;;;;;;;;;;;;;;;9.04;72.20;95640.22;5114697;28;1980;-48
2022/05/21 02:18:07;;;;;;;;;;;;;;;8.99;72.46;95640.66;5114905;28;1032;-49
2022/05/21 02:20:33;;;;;;;;;;;;;;;9.08;72.26;95641.63;5114896;28;1036;-49
2022/05/21 02:22:59;;;;;;;;;;;;;;;9.18;72.00;95646.94;5114997;28;1064;-49
2022/05/21 02:25:25;;;;;;;;;;;;;;;8.99;72.02;95640.66;5114242;28;1036;-49
2022/05/21 02:27:51;;;;;;;;;;;;;;;8.95;72.35;95649.91;5114687;28;1087;-49
2022/05/21 02:30:17;;;;;;;;;;;;;;;9.13;71.97;95630.53;5113905;28;1037;-48
2022/05/21 02:32:43;;;;;;;;;;;;;;;9.10;71.69;95642.31;5114175;28;1083;-48
2022/05/21 02:35:09;;;;;;;;;;;;;;;9.05;71.67;95644.59;5114658;28;1910;-48
2022/05/21 02:40:21;;;;;;;;;;;;;;;8.90;71.87;95635.31;5114226;28;1046;-48
2022/05/21 02:42:47;;;;;;;;;;;;;;;8.92;71.91;95636.00;5114742;28;1012;-48
2022/05/21 02:45:21;;;;;;;;;;;;;;;8.98;71.74;95638.94;5114193;28;1193;-48
2022/05/21 02:47:48;;;;;;;;;;;;;;;8.74;72.08;95641.16;5114531;28;961;-49
2022/05/21 02:50:16;;;;;;;;;;;;;;;8.48;72.99;95640.81;5114238;28;984;-48
2022/05/21 02:52:42;;;;;;;;;;;;;;;8.55;72.82;95633.97;5114496;28;1032;-48
2022/05/21 02:55:09;;;;;;;;;;;;;;;8.68;71.94;95625.72;5113755;28;1997;-48
2022/05/21 02:57:35;;;;;;;;;;;;;;;8.68;72.08;95637.22;5112860;28;1854;-48
2022/05/21 03:00:03;;;;;;;;;;;;;;;8.57;71.94;95643.53;5114180;28;1066;-48
2022/05/21 03:02:29;;;;;;;;;;;;;;;8.35;72.60;95647.22;5114160;28;1172;-48
2022/05/21 03:04:56;;;;;;;;;;;;;;;8.18;73.49;95647.88;5118919;27;1192;-48
2022/05/21 03:07:22;;;;;;;;;;;;;;;8.01;73.96;95646.66;5134375;27;987;-48
2022/05/21 03:12:32;;;;;;;;;;;;;;;8.32;72.94;95652.81;5134492;27;983;-49
2022/05/21 03:14:58;;;;;;;;;;;;;;;8.33;72.98;95651.84;5134370;27;1978;-49
2022/05/21 03:17:26;;;;;;;;;;;;;;;8.18;73.14;95653.19;5134379;27;980;-48
2022/05/21 03:19:52;;;;;;;;;;;;;;;7.97;73.55;95645.25;5134726;27;1044;-48
2022/05/21 03:22:18;;;;;;;;;;;;;;;7.96;73.95;95644.38;5134447;27;964;-48
2022/05/21 03:24:45;;;;;;;;;;;;;;;8.12;73.84;95643.03;5133947;27;1040;-48
2022/05/21 03:27:11;;;;;;;;;;;;;;;8.21;73.54;95644.91;5134487;27;972;-48
2022/05/21 03:29:37;;;;;;;;;;;;;;;8.16;73.99;95641.81;5134547;27;1040;-48
2022/05/21 03:32:04;;;;;;;;;;;;;;;8.43;72.96;95651.91;5134116;27;1094;-48
2022/05/21 03:34:30;;;;;;;;;;;;;;;8.51;72.61;95652.06;5134411;27;1983;-48
2022/05/21 03:36:56;;;;;;;;;;;;;;;8.18;73.15;95653.19;5134246;27;969;-48
2022/05/21 03:39:22;;;;;;;;;;;;;;;8.26;72.89;95658.69;5134344;27;1027;-48
2022/05/21 03:41:48;;;;;;;;;;;;;;;8.47;72.61;95658.63;5134636;27;977;-48
2022/05/21 03:44:15;;;;;;;;;;;;;;;8.77;72.04;95657.72;5138783;27;1051;-49
2022/05/21 03:46:41;;;;;;;;;;;;;;;9.23;71.02;95665.22;5138403;27;969;-48
2022/05/21 03:49:07;;;;;;;;;;;;;;;9.53;69.86;95659.72;5138323;27;1031;-49
2022/05/21 03:51:34;;;;;;;;;;;;;;;9.82;69.58;95661.50;5138099;27;1270;-49
2022/05/21 03:54:00;;;;;;;;;;;;;;;9.80;69.31;95662.63;5138278;27;1917;-48
2022/05/21 03:56:26;;;;;;;;;;;;;;;9.66;69.79;95664.78;5138295;27;1073;-49
2022/05/21 03:58:52;;;;;;;;;;;;;;;9.87;69.59;95667.25;5138538;27;1011;-49
2022/05/21 04:01:18;;;;;;;;;;;;;;;10.08;69.50;95663.56;5137973;27;1169;-49
2022/05/21 04:03:44;;;;;;;;;;;;;;;10.20;68.93;95667.72;5138044;27;1094;-49
2022/05/21 04:06:11;;;;;;;;;;;;;;;10.31;68.96;95670.25;5122818;27;1168;-49
2022/05/21 04:08:37;;;;;;;;;;;;;;;10.64;68.58;95672.50;5117419;28;969;-49
2022/05/21 04:11:03;;;;;;;;;;;;;;;10.82;68.39;95673.38;5117351;28;1016;-49
2022/05/21 04:13:29;;;;;;;;;;;;;;;10.93;68.11;95685.72;5117261;28;1344;-48
2022/05/21 04:15:55;;;;;;;;;;;;;;;11.05;67.96;95684.50;5116030;28;1972;-48
2022/05/21 04:18:21;;;;;;;;;;;;;;;11.04;68.16;95690.84;5117269;28;1118;-48
2022/05/21 04:20:47;;;;;;;;;;;;;;;11.22;67.90;95684.69;5117168;28;1995;-49
2022/05/21 04:23:13;;;;;;;;;;;;;;;11.48;66.24;95687.44;5117178;28;1023;-49
2022/05/21 04:25:39;;;;;;;;;;;;;;;11.79;65.25;95689.69;5115856;28;957;-49
2022/05/21 04:28:06;;;;;;;;;;;;;;;12.02;64.95;95672.16;5117239;28;1062;-48
2022/05/21 04:30:35;;;;;;;;;;;;;;;12.25;65.58;95682.34;5116898;28;1055;-49
2022/05/21 04:33:01;;;;;;;;;;;;;;;12.23;65.64;95678.97;5116818;28;2017;-49
2022/05/21 04:38:12;;;;;;;;;;;;;;;12.70;62.35;95676.69;5116640;28;1067;-49
2022/05/21 04:40:38;;;;;;;;;;;;;;;12.88;61.07;95676.63;5116772;28;1075;-49
2022/05/21 04:43:04;;;;;;;;;;;;;;;12.97;59.15;95674.78;5116610;28;1016;-49
2022/05/21 04:45:30;;;;;;;;;;;;;;;13.17;58.93;95677.22;5116642;28;1027;-49
2022/05/21 04:47:56;;;;;;;;;;;;;;;13.43;58.31;95666.34;5116947;28;1083;-48
2022/05/21 04:50:22;;;;;;;;;;;;;;;13.50;59.19;95674.59;5116576;28;1020;-48
2022/05/21 04:52:48;;;;;;;;;;;;;;;13.57;59.80;95678.31;5116347;28;1095;-49
2022/05/21 04:55:14;;;;;;;;;;;;;;;13.81;60.25;95672.94;5115324;28;1910;-50
2022/05/21 04:57:40;;;;;;;;;;;;;;;13.92;59.30;95674.44;5116534;28;971;-48
2022/05/21 05:00:07;;;;;;;;;;;;;;;13.96;59.35;95678.47;5116546;28;968;-49
2022/05/21 05:02:33;;;;;;;;;;;;;;;14.27;57.58;95680.44;5116130;28;1027;-49
2022/05/21 05:04:59;;;;;;;;;;;;;;;14.79;56.16;95673.75;5121596;27;1184;-49
2022/05/21 05:07:25;;;;;;;;;;;;;;;15.45;54.89;95681.50;5136884;27;976;-49
2022/05/21 05:09:51;;;;;;;;;;;;;;;15.96;53.20;95665.66;5136667;27;1044;-49
2022/05/21 05:12:17;;;;;;;;;;;;;;;16.61;51.44;95674.94;5136642;27;1091;-49
2022/05/21 05:14:43;;;;;;;;;;;;;;;17.07;50.82;95676.63;5136409;27;1909;-49
2022/05/21 05:17:11;;;;;;;;;;;;;;;17.70;48.62;95672.38;5136686;27;955;-50
2022/05/21 05:19:37;;;;;;;;;;;;;;;18.33;48.19;95677.94;5136726;27;941;-50
2022/05/21 05:22:04;;;;;;;;;;;;;;;18.35;47.61;95672.34;5136725;27;973;-50
2022/05/21 05:24:30;;;;;;;;;;;;;;;18.52;47.00;95673.69;5136177;27;1000;-50
2022/05/21 05:26:56;;;;;;;;;;;;;;;18.83;47.14;95680.59;5136522;27;1020;-50
2022/05/21 05:29:22;;;;;;;;;;;;;;;19.53;45.45;95675.06;5136476;27;1032;-50
2022/05/21 05:31:48;;;;;;;;;;;;;;;20.04;45.04;95665.56;5136362;27;1067;-50
2022/05/21 05:34:14;;;;;;;;;;;;;;;20.65;43.50;95668.06;5136104;27;1902;-50
2022/05/21 05:36:40;;;;;;;;;;;;;;;20.71;43.23;95665.56;5136499;27;913;-50
2022/05/21 05:39:06;;;;;;;;;;;;;;;21.20;42.67;95677.78;5136310;27;1024;-50
2022/05/21 05:41:36;;;;;;;;;;;;;;;21.01;43.42;95671.34;5136522;27;1212;-50
2022/05/21 05:44:02;;;;;;;;;;;;;;;20.63;44.29;95666.63;5136021;27;1110;-50
2022/05/21 05:46:29;;;;;;;;;;;;;;;20.28;45.37;95672.28;5135981;27;965;-50
2022/05/21 05:48:55;;;;;;;;;;;;;;;19.31;47.05;95677.91;5135897;27;1052;-50
2022/05/21 05:51:21;;;;;;;;;;;;;;;18.56;49.31;95674.16;5136254;27;1024;-49
2022/05/21 05:53:48;;;;;;;;;;;;;;;17.85;52.12;95664.22;5135457;27;1083;-49
2022/05/21 05:56:15;;;;;;;;;;;;;;;17.32;52.56;95660.91;5136073;27;1035;-49
2022/05/21 06:01:25;;;;;;;;;;;;;;;16.83;53.70;95657.00;5135998;27;1070;-49
2022/05/21 06:03:52;;;;;;;;;;;;;;;16.89;54.07;95655.44;5135848;27;960;-49
2022/05/21 06:06:18;;;;;;;;;;;;;;;17.13;54.61;95651.56;5119550;27;1239;-49
2022/05/21 06:08:44;;;;;;;;;;;;;;;17.13;53.03;95643.44;5113590;28;1891;-49
2022/05/21 06:11:11;;;;;;;;;;;;;;;17.11;53.53;95645.50;5115140;28;960;-49
2022/05/21 06:13:37;;;;;;;;;;;;;;;17.42;54.07;95644.41;5114601;28;1122;-49
2022/05/21 06:16:03;;;;;;;;;;;;;;;17.56;53.77;95640.81;5115271;28;1909;-49
2022/05/21 06:18:29;;;;;;;;;;;;;;;17.78;53.54;95633.53;5114967;28;969;-49
2022/05/21 06:20:59;;;;;;;;;;;;;;;18.10;53.04;95642.16;5114896;28;914;-50
2022/05/21 06:23:25;;;;;;;;;;;;;;;18.17;51.92;95634.91;5114447;28;1066;-49
2022/05/21 06:25:52;;;;;;;;;;;;;;;18.15;51.53;95620.75;5115083;28;974;-50
2022/05/21 06:28:18;;;;;;;;;;;;;;;18.27;51.87;95629.19;5114687;28;1031;-49
2022/05/21 06:30:45;;;;;;;;;;;;;;;18.36;51.87;95627.97;5114630;28;1027;-50
2022/05/21 06:33:14;;;;;;;;;;;;;;;18.49;50.64;95630.75;5114819;28;1036;-49
2022/05/21 06:35:40;;;;;;;;;;;;;;;18.47;51.27;95616.59;5114480;28;1914;-49
2022/05/21 06:38:07;;;;;;;;;;;;;;;18.63;52.75;95629.00;5114454;28;1083;-49
2022/05/21 06:40:33;;;;;;;;;;;;;;;18.81;51.51;95624.94;5114335;28;973;-48
2022/05/21 06:43:00;;;;;;;;;;;;;;;19.19;51.06;95624.47;5114698;28;1023;-49
2022/05/21 06:45:31;;;;;;;;;;;;;;;19.50;48.71;95621.22;5114458;28;1047;-49
2022/05/21 06:48:05;;;;;;;;;;;;;;;19.54;47.79;95618.94;5114417;28;1228;-49
2022/05/21 06:50:31;;;;;;;;;;;;;;;19.39;48.05;95614.53;5114135;28;1861;-49
2022/05/21 06:52:58;;;;;;;;;;;;;;;19.55;48.55;95607.88;5114222;28;1116;-49
2022/05/21 06:55:24;;;;;;;;;;;;;;;19.78;47.88;95596.66;5113687;28;2010;-49
2022/05/21 06:57:50;;;;;;;;;;;;;;;20.07;47.08;95589.16;5114488;28;983;-49
2022/05/21 07:00:18;;;;;;;;;;;;;;;20.18;46.91;95587.69;5113028;28;973;-49
2022/05/21 07:02:44;;;;;;;;;;;;;;;20.41;45.95;95588.09;5114305;28;965;-49
2022/05/21 07:07:55;;;;;;;;;;;;;;;20.77;44.92;95573.19;5134555;27;1106;-49
2022/05/21 07:10:23;;;;;;;;;;;;;;;20.89;44.86;95570.63;5134705;27;960;-49
2022/05/21 07:12:49;;;;;;;;;;;;;;;20.90;42.69;95566.84;5134801;27;969;-49
2022/05/21 07:15:16;;;;;;;;;;;;;;;20.91;42.73;95570.41;5134393;27;1993;-49
2022/05/21 07:17:44;;;;;;;;;;;;;;;20.96;42.30;95568.72;5133814;27;1098;-48
2022/05/21 07:20:12;;;;;;;;;;;;;;;20.91;41.75;95556.81;5134385;27;956;-49
2022/05/21 07:22:45;;;;;;;;;;;;;;;21.05;42.39;95558.41;5134458;27;960;-49
2022/05/21 07:25:12;;;;;;;;;;;;;;;21.30;42.14;95558.47;5134052;27;1035;-49
2022/05/21 07:27:39;;;;;;;;;;;;;;;21.54;41.96;95556.91;5134336;27;1032;-49
2022/05/21 07:30:06;;;;;;;;;;;;;;;21.54;41.55;95554.19;5134110;27;1095;-49
2022/05/21 07:32:32;;;;;;;;;;;;;;;21.43;41.43;95547.50;5134362;27;1040;-49
2022/05/21 07:34:59;;;;;;;;;;;;;;;21.43;42.09;95538.53;5133937;28;2059;-49
2022/05/21 07:37:26;;;;;;;;;;;;;;;21.78;42.49;95533.50;5133978;27;964;-49
2022/05/21 07:39:52;;;;;;;;;;;;;;;22.17;42.75;95538.78;5134420;27;1052;-49
2022/05/21 07:42:18;;;;;;;;;;;;;;;22.44;41.86;95542.09;5134493;27;1021;-49
2022/05/21 07:44:44;;;;;;;;;;;;;;;22.54;40.94;95534.25;5134267;27;960;-49
2022/05/21 07:47:11;;;;;;;;;;;;;;;22.51;40.89;95539.31;5134182;28;1039;-50
2022/05/21 07:49:37;;;;;;;;;;;;;;;22.60;42.14;95533.34;5134336;28;1054;-50
2022/05/21 07:52:04;;;;;;;;;;;;;;;22.71;42.10;95529.03;5133808;27;1048;-49
2022/05/21 07:54:30;;;;;;;;;;;;;;;22.59;41.68;95530.84;5134045;28;1913;-49
2022/05/21 07:56:56;;;;;;;;;;;;;;;22.52;40.95;95519.16;5134074;28;952;-49
2022/05/21 07:59:22;;;;;;;;;;;;;;;22.64;40.81;95511.91;5134126;28;977;-49
2022/05/21 08:01:48;;;;;;;;;;;;;;;22.77;40.92;95506.31;5133915;27;1032;-49
2022/05/21 08:04:17;;;;;;;;;;;;;;;22.88;41.55;95496.53;5134030;28;980;-49
2022/05/21 08:06:43;;;;;;;;;;;;;;;23.12;40.38;95499.38;5113934;27;1219;-49
2022/05/21 08:09:10;;;;;;;;;;;;;;;22.83;39.44;95503.72;5113668;28;975;-49
2022/05/21 08:11:36;;;;;;;;;;;;;;;22.91;40.21;95496.06;5113105;28;1099;-49
2022/05/21 08:14:02;;;;;;;;;;;;;;;23.12;39.46;95491.19;5113319;28;1972;-49
2022/05/21 08:16:29;;;;;;;;;;;;;;;23.26;40.96;95498.13;5113453;28;1063;-49
2022/05/21 08:18:56;;;;;;;;;;;;;;;23.51;40.66;95487.03;5113383;28;1016;-49
2022/05/21 08:21:22;;;;;;;;;;;;;;;23.72;41.12;95482.09;5112876;28;1024;-49
2022/05/21 08:29:18;;;;;;;;;;;;;;;23.75;39.61;95474.28;5115995;28;980;-49
2022/05/21 08:31:44;;;;;;;;;;;;;;;23.87;38.65;95482.50;5116658;28;1043;-49
2022/05/21 08:34:10;;;;;;;;;;;;;;;23.94;39.34;95475.03;5117429;28;2378;-49
2022/05/21 08:36:36;;;;;;;;;;;;;;;23.89;38.97;95468.63;5116601;28;1028;-49
2022/05/21 08:39:02;;;;;;;;;;;;;;;24.09;39.45;95468.25;5117094;28;1044;-49
2022/05/21 08:41:33;;;;;;;;;;;;;;;24.23;37.79;95461.47;5116608;28;1028;-49
2022/05/21 08:44:02;;;;;;;;;;;;;;;24.17;40.33;95457.78;5117195;28;960;-49
2022/05/21 08:46:38;;;;;;;;;;;;;;;24.21;39.70;95457.28;5115538;28;1038;-49
2022/05/21 08:49:06;;;;;;;;;;;;;;;24.35;39.87;95456.81;5116679;28;1104;-49
2022/05/21 08:51:40;;;;;;;;;;;;;;;24.38;39.85;95447.31;5116330;28;1051;-54
2022/05/21 08:54:07;;;;;;;;;;;;;;;24.61;40.11;95448.38;5116389;28;1992;-49
2022/05/21 08:56:36;;;;;;;;;;;;;;;24.57;39.22;95439.81;5116378;28;1847;-49
2022/05/21 08:59:07;;;;;;;;;;;;;;;24.68;40.12;95438.94;5116509;28;1135;-49
2022/05/21 09:01:35;;;;;;;;;;;;;;;24.83;39.75;95441.13;5116561;28;1039;-49
2022/05/21 09:04:03;;;;;;;;;;;;;;;24.91;40.70;95443.50;5116619;28;1043;-49
2022/05/21 09:06:33;;;;;;;;;;;;;;;25.05;39.03;95435.81;5133870;27;1161;-49
2022/05/21 09:08:59;;;;;;;;;;;;;;;25.19;39.11;95435.50;5137296;27;1083;-49
2022/05/21 09:11:34;;;;;;;;;;;;;;;25.22;39.52;95432.28;5136477;27;1021;-49
2022/05/21 09:14:03;;;;;;;;;;;;;;;25.38;39.98;95436.97;5136662;27;1913;-49
2022/05/21 09:19:20;;;;;;;;;;;;;;;25.36;39.57;95433.66;5137039;27;1039;-49
2022/05/21 09:21:47;;;;;;;;;;;;;;;25.39;38.67;95424.97;5136867;27;964;-49
2022/05/21 09:24:32;;;;;;;;;;;;;;;25.39;39.03;95424.97;5136682;27;1044;-49
2022/05/21 09:26:58;;;;;;;;;;;;;;;25.49;39.49;95422.38;5136691;27;1122;-49
2022/05/21 09:29:28;;;;;;;;;;;;;;;25.59;40.82;95426.38;5136524;27;1884;-49
2022/05/21 09:31:55;;;;;;;;;;;;;;;25.59;39.33;95409.94;5136565;27;969;-49
2022/05/21 09:34:26;;;;;;;;;;;;;;;25.68;39.28;95416.66;5136241;27;1917;-49
2022/05/21 09:36:55;;;;;;;;;;;;;;;25.82;39.94;95419.88;5136199;27;1041;-49
2022/05/21 09:39:27;;;;;;;;;;;;;;;25.88;39.99;95418.91;5136323;27;1042;-50
2022/05/21 09:42:05;;;;;;;;;;;;;;;25.96;39.09;95407.53;5136200;27;969;-49
2022/05/21 09:47:24;;;;;;;;;;;;;;;26.05;38.25;95403.28;5135959;27;1083;-49
2022/05/21 09:50:03;;;;;;;;;;;;;;;26.10;37.91;95395.16;5136324;27;986;-49
2022/05/21 09:52:30;;;;;;;;;;;;;;;26.20;38.50;95391.72;5136070;27;976;-49
2022/05/21 09:54:57;;;;;;;;;;;;;;;26.30;36.53;95394.56;5136073;27;1995;-49
2022/05/21 09:57:23;;;;;;;;;;;;;;;26.39;36.67;95391.38;5135943;27;1134;-49
2022/05/21 10:00:16;;;;;;;;;;;;;;;26.54;36.50;95383.38;5135855;27;1075;-49
2022/05/21 10:02:49;;;;;;;;;;;;;;;26.54;34.80;95388.00;5135807;27;1325;-49
2022/05/21 10:05:19;;;;;;;;;;;;;;;26.58;36.31;95381.75;5128668;27;1206;-49
2022/05/21 10:13:20;;;;;;;;;;;;;;;26.89;34.31;95365.66;5115032;28;1252;-49
2022/05/21 10:15:49;;;;;;;;;;;;;;;27.05;31.91;95355.66;5115071;28;1982;-49
2022/05/21 10:18:16;;;;;;;;;;;;;;;27.10;25.90;95358.47;5115237;28;1007;-49
2022/05/21 10:20:46;;;;;;;;;;;;;;;26.98;26.67;95355.06;5115031;28;984;-49
2022/05/21 10:23:31;;;;;;;;;;;;;;;27.02;27.19;95347.97;5114755;28;1055;-49
2022/05/21 10:26:03;;;;;;;;;;;;;;;27.06;26.01;95335.38;5115046;28;1020;-49
2022/05/21 10:28:41;;;;;;;;;;;;;;;27.13;28.10;95340.63;5114568;28;969;-49
2022/05/21 10:31:22;;;;;;;;;;;;;;;27.28;28.24;95338.06;5114682;28;1056;-49
2022/05/21 10:34:12;;;;;;;;;;;;;;;27.30;27.49;95335.91;5114698;28;1029;-49
2022/05/21 10:36:43;;;;;;;;;;;;;;;27.37;28.88;95332.91;5114828;28;961;-49
2022/05/21 10:39:20;;;;;;;;;;;;;;;27.24;26.31;95328.66;5114616;28;1055;-51
2022/05/21 10:42:05;;;;;;;;;;;;;;;27.17;26.44;95330.81;5114907;28;1059;-49
2022/05/21 10:44:34;;;;;;;;;;;;;;;27.17;26.61;95319.84;5114291;28;1052;-49
2022/05/21 10:47:16;;;;;;;;;;;;;;;27.20;30.74;95313.81;5114481;28;1032;-49
2022/05/21 10:50:01;;;;;;;;;;;;;;;27.28;28.28;95310.63;5114003;28;1043;-49
2022/05/21 10:52:46;;;;;;;;;;;;;;;27.40;30.78;95314.00;5113731;28;1012;-48
2022/05/21 10:55:15;;;;;;;;;;;;;;;27.37;30.08;95314.53;5114336;28;1993;-49
2022/05/21 10:57:47;;;;;;;;;;;;;;;27.27;28.77;95309.78;5114324;28;972;-48
2022/05/21 11:00:16;;;;;;;;;;;;;;;27.33;28.75;95307.09;5114463;28;1116;-48
2022/05/21 11:02:43;;;;;;;;;;;;;;;27.32;28.97;95295.28;5114214;28;1052;-49
2022/05/21 11:05:18;;;;;;;;;;;;;;;27.38;29.70;95299.72;5120689;27;1270;-50
2022/05/21 11:07:59;;;;;;;;;;;;;;;27.41;30.22;95292.84;5134820;27;1063;-49
2022/05/21 11:10:31;;;;;;;;;;;;;;;27.52;29.34;95286.34;5134588;27;1055;-49
2022/05/21 11:12:59;;;;;;;;;;;;;;;27.60;28.45;95285.88;5134787;27;1107;-50
2022/05/21 11:15:36;;;;;;;;;;;;;;;27.63;29.29;95271.59;5133157;27;1905;-49
2022/05/21 11:18:10;;;;;;;;;;;;;;;27.70;28.61;95267.78;5134781;27;967;-49
2022/05/21 11:20:38;;;;;;;;;;;;;;;27.61;27.97;95259.22;5134442;27;949;-49
2022/05/21 11:23:06;;;;;;;;;;;;;;;27.73;29.89;95256.25;5134331;27;1019;-49
2022/05/21 11:25:48;;;;;;;;;;;;;;;27.90;29.23;95261.59;5133982;27;1068;-50
2022/05/21 11:28:26;;;;;;;;;;;;;;;28.01;28.89;95255.88;5134505;27;972;-50
2022/05/21 11:30:57;;;;;;;;;;;;;;;28.11;30.20;95257.81;5134652;27;1026;-50
2022/05/21 11:38:58;;;;;;;;;;;;;;;28.12;30.07;95237.50;5134238;28;1015;-49
2022/05/21 11:41:44;;;;;;;;;;;;;;;28.10;28.77;95231.44;5134325;27;1072;-49
2022/05/21 11:47:05;;;;;;;;;;;;;;;28.02;30.68;95209.97;5134517;28;952;-49
2022/05/21 11:52:58;;;;;;;;;;;;;;;28.07;29.96;95207.25;5134491;28;678;-50
2022/05/21 11:55:29;;;;;;;;;;;;;;;28.02;29.70;95198.97;5133610;27;1985;-49
2022/05/21 11:57:57;;;;;;;;;;;;;;;28.08;28.05;95192.44;5134117;27;1056;-50
2022/05/21 12:00:26;;;;;;;;;;;;;;;28.10;29.74;95187.47;5133776;27;1019;-50
2022/05/21 12:02:56;;;;;;;;;;;;;;;28.17;29.54;95184.47;5133408;27;1036;-49
2022/05/21 12:05:46;;;;;;;;;;;;;;;28.28;30.78;95179.81;5129592;27;1206;-49
2022/05/21 12:08:22;;;;;;;;;;;;;;;28.33;30.35;95182.59;5114194;28;1311;-50
2022/05/21 12:10:55;;;;;;;;;;;;;;;28.39;29.90;95176.00;5117303;28;1087;-49
2022/05/21 12:13:33;;;;;;;;;;;;;;;28.46;30.93;95181.19;5117421;28;1075;-50
2022/05/21 12:16:01;;;;;;;;;;;;;;;28.49;31.34;95175.16;5115921;28;1910;-49
2022/05/21 12:18:27;;;;;;;;;;;;;;;28.55;29.81;95172.19;5117454;28;1056;-49
2022/05/21 12:20:54;;;;;;;;;;;;;;;28.49;29.55;95178.72;5117100;28;1016;-50
2022/05/21 12:23:26;;;;;;;;;;;;;;;28.43;29.71;95171.59;5117705;28;1034;-49
2022/05/21 12:25:54;;;;;;;;;;;;;;;28.43;29.52;95157.84;5116936;28;1121;-49
2022/05/21 12:28:20;;;;;;;;;;;;;;;28.39;29.06;95154.81;5117400;28;1019;-49
2022/05/21 12:30:47;;;;;;;;;;;;;;;28.35;30.29;95152.91;5117030;28;1023;-49
2022/05/21 12:33:24;;;;;;;;;;;;;;;28.39;29.44;95156.75;5117128;28;1092;-49
2022/05/21 12:35:55;;;;;;;;;;;;;;;28.40;30.14;95156.47;5116743;28;1905;-49
2022/05/21 12:38:21;;;;;;;;;;;;;;;28.34;28.97;95154.81;5116869;28;1040;-49
2022/05/21 12:40:56;;;;;;;;;;;;;;;28.35;29.72;95142.72;5116947;28;949;-49
2022/05/21 12:43:24;;;;;;;;;;;;;;;28.42;29.42;95142.47;5117146;28;1030;-49
2022/05/21 12:45:51;;;;;;;;;;;;;;;28.41;29.90;95141.59;5116668;28;1946;-49
2022/05/21 12:48:23;;;;;;;;;;;;;;;28.46;32.05;95132.56;5116614;28;1012;-49
2022/05/21 12:50:59;;;;;;;;;;;;;;;28.47;29.44;95131.44;5116463;28;1091;-49
2022/05/21 12:53:28;;;;;;;;;;;;;;;28.39;29.55;95132.81;5116600;28;1064;-49
2022/05/21 12:55:59;;;;;;;;;;;;;;;28.26;29.35;95127.03;5116198;28;1984;-49
2022/05/21 12:58:25;;;;;;;;;;;;;;;28.28;29.92;95122.91;5116523;28;1054;-49
2022/05/21 13:00:52;;;;;;;;;;;;;;;28.29;29.24;95126.50;5116486;28;999;-48
2022/05/21 13:03:20;;;;;;;;;;;;;;;28.32;29.12;95128.69;5116301;28;1044;-48
2022/05/21 13:05:58;;;;;;;;;;;;;;;28.33;29.36;95119.34;5127859;27;1624;-48
2022/05/21 13:08:25;;;;;;;;;;;;;;;28.32;29.79;95124.00;5136950;27;998;-49
2022/05/21 13:10:58;;;;;;;;;;;;;;;28.22;29.63;95121.25;5136809;27;969;-49
2022/05/21 13:13:24;;;;;;;;;;;;;;;28.26;29.96;95118.78;5136558;27;1256;-49
2022/05/21 13:15:55;;;;;;;;;;;;;;;28.28;29.22;95116.59;5135517;27;1995;-48
2022/05/21 13:18:21;;;;;;;;;;;;;;;28.35;30.10;95112.47;5136584;27;1039;-48
2022/05/21 13:20:59;;;;;;;;;;;;;;;28.48;31.18;95110.28;5136677;27;1052;-48
2022/05/21 13:23:34;;;;;;;;;;;;;;;28.57;30.14;95105.88;5136386;27;1063;-49
2022/05/21 13:26:00;;;;;;;;;;;;;;;28.52;29.90;95106.72;5136379;27;1062;-49
2022/05/21 13:28:26;;;;;;;;;;;;;;;28.48;28.72;95102.84;5136611;27;1006;-49
2022/05/21 13:30:52;;;;;;;;;;;;;;;28.34;29.01;95099.00;5136432;27;1044;-48
2022/05/21 13:33:33;;;;;;;;;;;;;;;28.41;30.33;95094.06;5136507;27;1011;-48
2022/05/21 13:36:01;;;;;;;;;;;;;;;28.37;29.40;95088.28;5136306;27;1992;-49
2022/05/21 13:38:30;;;;;;;;;;;;;;;28.36;29.40;95085.78;5136136;27;1043;-49
2022/05/21 13:40:56;;;;;;;;;;;;;;;28.39;29.38;95088.00;5136067;27;1067;-49
2022/05/21 13:43:28;;;;;;;;;;;;;;;28.35;29.49;95082.22;5136055;27;1877;-49
2022/05/21 13:45:56;;;;;;;;;;;;;;;28.45;30.46;95086.91;5135960;27;948;-49
2022/05/21 13:48:24;;;;;;;;;;;;;;;28.51;31.04;95083.03;5135862;27;985;-49
2022/05/21 13:50:50;;;;;;;;;;;;;;;28.45;30.35;95081.41;5135976;27;1157;-49
2022/05/21 13:53:22;;;;;;;;;;;;;;;28.37;30.50;95074.53;5136054;27;956;-49
2022/05/21 13:55:59;;;;;;;;;;;;;;;28.50;32.02;95084.16;5135650;27;1988;-49